Time;durP1;ratioP1;P1;durP2;ratioP2;P2;SDS_P1;SDS_P2;PMS_P1;PMS_P2;Temp;Humidity;BMP_temperature;BMP_pressure;BME280_temperature;BME280_humidity;BME280_pressure;Samples;Min_cycle;Max_cycle;Signal;HPM_P1;HPM_P2
2024/04/30 00:00:25;;;;;;;2.45;2.25;;;14.90;84.40;;;;;;5358357;26;20000;-76
2024/04/30 00:02:52;;;;;;;2.00;1.80;;;14.90;84.20;;;;;;5379011;26;20011;-76
2024/04/30 00:05:19;;;;;;;3.17;2.17;;;14.90;84.50;;;;;;5380833;26;20019;-76
2024/04/30 00:07:47;;;;;;;4.00;1.85;;;15.00;84.50;;;;;;5351318;26;20073;-76
2024/04/30 00:10:14;;;;;;;2.13;2.03;;;15.00;84.70;;;;;;5381579;26;19996;-76
2024/04/30 00:12:41;;;;;;;2.90;2.28;;;15.00;85.10;;;;;;5380701;26;19997;-76
2024/04/30 00:15:08;;;;;;;2.33;2.13;;;15.00;85.00;;;;;;5381822;26;20008;-76
2024/04/30 00:17:35;;;;;;;2.78;2.58;;;15.00;85.20;;;;;;5379946;26;20460;-76
2024/04/30 00:20:02;;;;;;;2.20;1.65;;;15.00;85.10;;;;;;5380202;26;20036;-76
2024/04/30 00:22:29;;;;;;;2.15;1.90;;;15.10;85.30;;;;;;5379833;26;20013;-77
2024/04/30 00:24:57;;;;;;;2.13;1.98;;;15.10;85.50;;;;;;5380087;26;20014;-76
2024/04/30 00:27:24;;;;;;;2.95;1.98;;;15.10;85.60;;;;;;5379771;26;20011;-76
2024/04/30 00:29:51;;;;;;;2.20;1.75;;;15.10;85.60;;;;;;5381609;26;20000;-76
2024/04/30 00:32:18;;;;;;;1.42;1.33;;;15.10;85.60;;;;;;5381407;26;20012;-76
2024/04/30 00:34:45;;;;;;;1.60;1.50;;;15.10;85.60;;;;;;5381700;26;20012;-76
2024/04/30 00:37:12;;;;;;;1.45;1.35;;;15.10;85.70;;;;;;5380214;26;20012;-76
2024/04/30 00:39:39;;;;;;;2.28;1.85;;;15.20;86.00;;;;;;5379753;26;20009;-76
2024/04/30 00:42:06;;;;;;;3.58;1.88;;;15.10;86.10;;;;;;5380222;26;20070;-76
2024/04/30 00:44:33;;;;;;;2.40;2.20;;;15.20;86.10;;;;;;5350481;26;20015;-76
2024/04/30 00:47:00;;;;;;;1.70;1.60;;;15.20;86.00;;;;;;5379914;26;19996;-76
2024/04/30 00:49:28;;;;;;;1.95;1.80;;;15.20;86.10;;;;;;5381347;26;20023;-76
2024/04/30 00:51:56;;;;;;;2.17;1.98;;;15.20;86.20;;;;;;5380448;26;20004;-76
2024/04/30 00:54:24;;;;;;;5.47;2.42;;;15.20;86.20;;;;;;5379178;26;20015;-76
2024/04/30 00:56:55;;;;;;;3.33;2.30;;;15.20;86.20;;;;;;5381349;26;20012;-76
2024/04/30 00:59:22;;;;;;;2.25;2.10;;;15.20;86.20;;;;;;5379647;26;20004;-76
2024/04/30 01:01:50;;;;;;;2.85;2.65;;;15.20;86.50;;;;;;5350643;26;20051;-76
2024/04/30 01:04:17;;;;;;;1.58;1.45;;;15.20;86.80;;;;;;5350686;26;20012;-76
2024/04/30 01:06:44;;;;;;;3.47;2.38;;;15.10;86.90;;;;;;5380892;26;20000;-76
2024/04/30 01:09:11;;;;;;;3.80;2.63;;;15.10;86.90;;;;;;5379454;26;20324;-76
2024/04/30 01:11:38;;;;;;;2.67;2.40;;;15.10;87.20;;;;;;5379412;26;20070;-76
2024/04/30 01:14:05;;;;;;;3.00;1.98;;;15.10;87.20;;;;;;5381088;26;20234;-76
2024/04/30 01:16:32;;;;;;;2.28;2.13;;;15.10;87.20;;;;;;5379742;26;20007;-76
2024/04/30 01:18:59;;;;;;;2.80;2.60;;;15.10;87.50;;;;;;5379260;26;20008;-76
2024/04/30 01:21:26;;;;;;;2.03;1.92;;;15.10;87.20;;;;;;5350245;26;20032;-76
2024/04/30 01:23:54;;;;;;;2.20;2.00;;;15.10;87.20;;;;;;5381081;26;20008;-76
2024/04/30 01:26:21;;;;;;;2.55;2.35;;;15.10;87.50;;;;;;5381122;26;20007;-76
2024/04/30 01:28:48;;;;;;;2.95;2.20;;;15.20;87.20;;;;;;5380688;26;20001;-76
2024/04/30 01:31:15;;;;;;;4.82;2.42;;;15.20;87.50;;;;;;5380939;26;20409;-76
2024/04/30 01:33:42;;;;;;;2.10;1.70;;;15.20;87.40;;;;;;5380300;26;20463;-76
2024/04/30 01:36:09;;;;;;;3.08;2.17;;;15.20;87.50;;;;;;5350333;26;20000;-76
2024/04/30 01:38:36;;;;;;;2.50;2.20;;;15.20;87.40;;;;;;5349750;26;20012;-76
2024/04/30 01:41:03;;;;;;;2.97;2.38;;;15.20;88.10;;;;;;5293296;26;20082;-76
2024/04/30 01:43:30;;;;;;;3.80;3.42;;;15.30;87.50;;;;;;5321136;26;20008;-76
2024/04/30 01:45:58;;;;;;;2.95;2.00;;;15.30;87.50;;;;;;5378697;26;20000;-76
2024/04/30 01:48:25;;;;;;;2.75;2.05;;;15.30;87.70;;;;;;5378799;26;20011;-76
2024/04/30 01:50:52;;;;;;;3.50;2.35;;;15.30;87.80;;;;;;5380500;26;20107;-76
2024/04/30 01:53:19;;;;;;;4.20;2.80;;;15.30;88.40;;;;;;5378722;26;20000;-76
2024/04/30 01:55:46;;;;;;;4.00;2.30;;;15.20;88.50;;;;;;5380663;26;20008;-76
2024/04/30 01:58:13;;;;;;;2.83;2.63;;;15.20;88.70;;;;;;5350128;26;19997;-76
2024/04/30 02:00:40;;;;;;;1.90;1.40;;;15.10;89.40;;;;;;5380449;26;20028;-76
2024/04/30 02:03:07;;;;;;;2.53;2.33;;;15.00;89.70;;;;;;5380450;26;20453;-76
2024/04/30 02:05:34;;;;;;;2.38;2.00;;;14.90;90.20;;;;;;5380157;26;20047;-77
2024/04/30 02:08:01;;;;;;;4.32;3.63;;;14.70;90.50;;;;;;5378732;26;20039;-76
2024/04/30 02:10:28;;;;;;;3.33;2.80;;;14.60;91.10;;;;;;5349646;26;20006;-76
2024/04/30 02:12:56;;;;;;;2.45;2.20;;;14.50;91.30;;;;;;5380318;26;20013;-76
2024/04/30 02:15:23;;;;;;;2.50;2.20;;;14.50;91.80;;;;;;5380230;26;20077;-76
2024/04/30 02:17:50;;;;;;;1.80;1.50;;;14.40;91.80;;;;;;5349030;26;20051;-76
2024/04/30 02:20:17;;;;;;;3.88;2.38;;;14.40;92.10;;;;;;5349733;26;20032;-76
2024/04/30 02:22:44;;;;;;;2.90;2.70;;;14.40;92.20;;;;;;5379709;26;20016;-76
2024/04/30 02:25:11;;;;;;;2.88;2.55;;;14.40;91.90;;;;;;5379890;26;20028;-76
2024/04/30 02:27:38;;;;;;;3.00;2.58;;;14.40;92.30;;;;;;5377817;26;20036;-76
2024/04/30 02:30:13;;;;;;;2.55;2.20;;;14.40;92.40;;;;;;5352680;26;20000;-77
2024/04/30 02:35:34;;;;;;;2.20;2.00;;;14.40;92.40;;;;;;5368409;26;20008;-77
2024/04/30 02:38:02;;;;;;;2.03;1.83;;;14.40;92.50;;;;;;5381544;26;19996;-76
2024/04/30 02:40:29;;;;;;;3.05;2.75;;;14.40;92.70;;;;;;5383363;26;19996;-76
2024/04/30 02:42:56;;;;;;;1.80;1.70;;;14.40;92.80;;;;;;5383050;26;20020;-76
2024/04/30 02:45:23;;;;;;;3.33;2.45;;;14.40;92.80;;;;;;5381495;26;20017;-76
2024/04/30 02:47:50;;;;;;;3.47;2.40;;;14.40;93.30;;;;;;5383260;26;20042;-76
2024/04/30 02:50:17;;;;;;;3.03;2.72;;;14.40;93.60;;;;;;5383247;26;20189;-76
2024/04/30 02:52:44;;;;;;;5.05;3.08;;;14.30;93.50;;;;;;5352047;26;20010;-76
2024/04/30 02:55:11;;;;;;;3.33;3.03;;;14.30;93.70;;;;;;5383087;26;20012;-76
2024/04/30 02:57:38;;;;;;;6.25;3.80;;;14.20;94.00;;;;;;5381118;26;20033;-76
2024/04/30 03:00:06;;;;;;;3.75;3.15;;;14.20;94.10;;;;;;5352298;26;20000;-76
2024/04/30 03:02:33;;;;;;;6.63;3.83;;;14.20;93.90;;;;;;5358562;26;20489;-76
2024/04/30 03:05:00;;;;;;;4.05;2.33;;;14.20;94.10;;;;;;5373004;26;20446;-76
2024/04/30 03:07:27;;;;;;;5.15;3.55;;;14.20;94.50;;;;;;5341170;26;20001;-76
2024/04/30 03:09:54;;;;;;;7.28;3.75;;;14.20;94.70;;;;;;5347446;26;20013;-76
2024/04/30 03:12:21;;;;;;;2.58;2.38;;;14.10;94.70;;;;;;5348235;26;20438;-76
2024/04/30 03:14:48;;;;;;;4.07;3.78;;;14.10;95.10;;;;;;5347997;26;20044;-76
2024/04/30 03:17:15;;;;;;;3.13;2.75;;;14.10;94.80;;;;;;5346306;26;20001;-76
2024/04/30 03:19:43;;;;;;;3.25;2.97;;;14.10;95.10;;;;;;5346097;26;20168;-76
2024/04/30 03:22:10;;;;;;;4.88;3.15;;;14.10;95.20;;;;;;5348066;26;20048;-76
2024/04/30 03:24:37;;;;;;;5.32;3.22;;;14.00;95.10;;;;;;5347887;26;20008;-76
2024/04/30 03:27:04;;;;;;;5.72;3.53;;;14.10;95.00;;;;;;5346077;26;20075;-76
2024/04/30 03:29:31;;;;;;;3.20;2.90;;;14.10;95.00;;;;;;5345884;26;20008;-76
2024/04/30 03:31:58;;;;;;;4.60;3.28;;;14.10;95.50;;;;;;5345633;26;20001;-76
2024/04/30 03:34:25;;;;;;;2.85;2.60;;;14.00;95.40;;;;;;5345939;26;20001;-76
2024/04/30 03:36:52;;;;;;;3.55;3.20;;;14.10;95.60;;;;;;5345679;26;20012;-76
2024/04/30 03:39:19;;;;;;;4.05;3.25;;;14.10;95.40;;;;;;5316729;26;20001;-76
2024/04/30 03:41:46;;;;;;;5.38;3.58;;;14.10;95.60;;;;;;5316392;26;20213;-76
2024/04/30 03:44:13;;;;;;;3.65;3.40;;;14.10;96.10;;;;;;5345807;26;20051;-76
2024/04/30 03:46:40;;;;;;;3.92;3.53;;;14.10;95.60;;;;;;5345707;26;20001;-76
2024/04/30 03:49:08;;;;;;;3.90;3.00;;;14.10;95.70;;;;;;5345481;26;20001;-76
2024/04/30 03:51:35;;;;;;;3.80;3.15;;;14.10;96.10;;;;;;5347712;26;19997;-76
2024/04/30 03:54:02;;;;;;;4.25;3.65;;;14.20;95.90;;;;;;5345380;26;20009;-76
2024/04/30 03:56:29;;;;;;;3.83;3.40;;;14.10;95.60;;;;;;5317027;26;20070;-76
2024/04/30 03:58:56;;;;;;;5.05;3.65;;;14.10;95.50;;;;;;5345268;26;20012;-76
2024/04/30 04:01:23;;;;;;;3.80;3.33;;;14.10;95.60;;;;;;5347208;26;20070;-75
2024/04/30 04:03:50;;;;;;;7.05;4.00;;;14.10;95.60;;;;;;5345502;26;20596;-76
2024/04/30 04:06:17;;;;;;;4.15;3.75;;;14.10;95.80;;;;;;5345280;26;20070;-75
2024/04/30 04:08:44;;;;;;;2.97;2.75;;;14.00;96.10;;;;;;5345431;26;20005;-75
2024/04/30 04:16:43;;;;;;;3.65;3.35;;;13.90;96.50;;;;;;5347112;26;20000;-76
2024/04/30 04:19:10;;;;;;;4.38;3.97;;;13.90;96.60;;;;;;5344915;26;20001;-75
2024/04/30 04:21:37;;;;;;;3.55;3.25;;;13.90;97.00;;;;;;5346940;26;20005;-75
2024/04/30 04:24:04;;;;;;;3.75;3.45;;;13.80;97.50;;;;;;5316239;26;20008;-75
2024/04/30 04:26:31;;;;;;;3.92;3.63;;;13.80;97.10;;;;;;5346741;26;20078;-76
2024/04/30 04:28:58;;;;;;;4.22;3.78;;;13.80;97.90;;;;;;5344893;26;20004;-75
2024/04/30 04:31:26;;;;;;;5.80;4.53;;;13.80;97.70;;;;;;5345336;26;19997;-75
2024/04/30 04:33:53;;;;;;;4.90;3.72;;;13.80;97.80;;;;;;5316193;26;20066;-75
2024/04/30 04:36:20;;;;;;;3.38;3.15;;;13.90;98.30;;;;;;5345196;26;19997;-76
2024/04/30 04:38:47;;;;;;;5.13;3.83;;;13.80;98.20;;;;;;5345125;26;20327;-76
2024/04/30 04:41:14;;;;;;;4.30;3.90;;;13.90;98.30;;;;;;5346971;26;20009;-75
2024/04/30 04:43:41;;;;;;;4.68;4.05;;;13.90;98.10;;;;;;5374394;26;19997;-76
2024/04/30 04:46:08;;;;;;;4.03;3.72;;;13.90;98.00;;;;;;5346276;26;20011;-75
2024/04/30 04:48:35;;;;;;;4.32;3.92;;;14.00;97.90;;;;;;5316107;26;20078;-76
2024/04/30 04:51:04;;;;;;;4.72;4.32;;;14.00;98.00;;;;;;5345971;26;20013;-76
2024/04/30 04:53:31;;;;;;;5.13;4.10;;;14.10;97.80;;;;;;5345312;26;20001;-76
2024/04/30 04:55:58;;;;;;;5.25;4.47;;;14.10;97.70;;;;;;5315897;26;20085;-76
2024/04/30 04:58:25;;;;;;;4.68;4.10;;;14.10;97.70;;;;;;5373676;26;20000;-76
2024/04/30 05:00:52;;;;;;;4.20;3.80;;;14.20;97.60;;;;;;5374424;26;20023;-76
2024/04/30 05:03:19;;;;;;;3.88;3.28;;;14.20;97.60;;;;;;5402653;26;20001;-76
2024/04/30 05:05:46;;;;;;;5.95;3.42;;;14.30;97.60;;;;;;5401774;26;20001;-76
2024/04/30 05:08:13;;;;;;;4.47;4.07;;;14.30;97.80;;;;;;5346076;26;20013;-76
2024/04/30 05:10:41;;;;;;;4.22;3.85;;;14.40;97.80;;;;;;5377033;26;20462;-75
2024/04/30 05:13:09;;;;;;;4.50;4.10;;;14.40;97.70;;;;;;5356847;26;20001;-75
2024/04/30 05:15:36;;;;;;;3.97;3.65;;;14.50;97.80;;;;;;5345928;26;20009;-75
2024/04/30 05:18:03;;;;;;;4.82;3.80;;;14.50;97.70;;;;;;5345571;26;20323;-75
2024/04/30 05:20:30;;;;;;;5.57;3.80;;;14.60;97.70;;;;;;5316009;26;20334;-75
2024/04/30 05:22:57;;;;;;;4.38;3.95;;;14.70;97.60;;;;;;5346127;26;20070;-75
2024/04/30 05:25:25;;;;;;;5.07;4.18;;;14.70;97.50;;;;;;5344356;26;20000;-75
2024/04/30 05:27:52;;;;;;;3.92;3.53;;;14.80;97.40;;;;;;5345875;26;20081;-75
2024/04/30 05:30:20;;;;;;;6.95;3.65;;;14.80;97.40;;;;;;5345817;26;20001;-75
2024/04/30 05:32:47;;;;;;;5.25;3.85;;;14.80;97.30;;;;;;5345965;26;20033;-75
2024/04/30 05:35:14;;;;;;;4.72;3.90;;;14.80;97.30;;;;;;5345531;26;20342;-75
2024/04/30 05:37:44;;;;;;;3.90;3.17;;;14.80;97.30;;;;;;5345912;26;20000;-75
2024/04/30 05:40:11;;;;;;;3.88;3.50;;;14.80;97.20;;;;;;5345512;26;20450;-75
2024/04/30 05:42:39;;;;;;;6.57;4.18;;;14.90;97.10;;;;;;5344026;26;20015;-76
2024/04/30 05:45:07;;;;;;;4.28;3.83;;;14.90;97.00;;;;;;5343801;26;20005;-76
2024/04/30 05:47:35;;;;;;;5.25;4.68;;;15.00;97.00;;;;;;5345673;26;20015;-76
2024/04/30 05:50:02;;;;;;;4.07;3.58;;;15.10;96.90;;;;;;5345480;26;19997;-76
2024/04/30 05:52:30;;;;;;;6.05;4.95;;;15.20;96.70;;;;;;5344054;26;20075;-76
2024/04/30 05:54:57;;;;;;;5.13;4.50;;;15.30;96.60;;;;;;5344315;26;19997;-76
2024/04/30 05:57:24;;;;;;;7.05;3.55;;;15.40;96.50;;;;;;5345431;26;20401;-76
2024/04/30 05:59:51;;;;;;;4.57;4.15;;;15.50;96.30;;;;;;5315482;26;19997;-76
2024/04/30 06:02:18;;;;;;;4.82;3.95;;;15.60;96.00;;;;;;5345571;26;20044;-76
2024/04/30 06:04:45;;;;;;;4.97;3.97;;;15.80;95.70;;;;;;5346334;26;20450;-76
2024/04/30 06:07:12;;;;;;;5.93;3.78;;;16.00;95.50;;;;;;5318013;26;20040;-76
2024/04/30 06:09:39;;;;;;;4.15;3.67;;;16.30;95.60;;;;;;5347586;26;20463;-76
2024/04/30 06:12:07;;;;;;;4.20;3.67;;;16.50;95.00;;;;;;5350129;26;20001;-76
2024/04/30 06:14:34;;;;;;;8.85;3.90;;;16.60;94.60;;;;;;5369855;26;20445;-76
2024/04/30 06:17:01;;;;;;;6.03;4.40;;;16.70;94.30;;;;;;5383297;26;20022;-76
2024/04/30 06:19:28;;;;;;;5.28;3.88;;;16.70;94.10;;;;;;5383480;26;20000;-76
2024/04/30 06:21:55;;;;;;;4.93;3.67;;;16.80;94.30;;;;;;5348336;26;20004;-76
2024/04/30 06:24:24;;;;;;;5.50;4.72;;;16.80;93.90;;;;;;5348131;26;20013;-76
2024/04/30 06:26:51;;;;;;;5.30;3.90;;;16.80;93.80;;;;;;5318132;26;20000;-76
2024/04/30 06:29:18;;;;;;;5.57;4.00;;;16.80;93.80;;;;;;5346479;26;20070;-76
2024/04/30 06:31:45;;;;;;;4.28;3.83;;;16.90;93.60;;;;;;5289899;26;19997;-75
2024/04/30 06:34:13;;;;;;;4.55;3.60;;;16.90;93.60;;;;;;5346796;26;20033;-75
2024/04/30 06:36:40;;;;;;;4.55;2.22;;;16.90;93.50;;;;;;5348444;26;20075;-75
2024/04/30 06:39:07;;;;;;;5.95;4.50;;;16.90;93.30;;;;;;5348159;26;20074;-75
2024/04/30 06:41:34;;;;;;;6.05;5.00;;;17.00;93.60;;;;;;5346820;26;20070;-75
2024/04/30 06:44:01;;;;;;;6.05;4.25;;;17.00;93.50;;;;;;5346575;26;20016;-75
2024/04/30 06:46:28;;;;;;;4.53;4.15;;;17.10;93.50;;;;;;5347872;26;20001;-75
2024/04/30 06:48:55;;;;;;;5.28;4.40;;;17.20;93.50;;;;;;5346424;26;20331;-75
2024/04/30 06:51:22;;;;;;;4.60;4.20;;;17.40;93.30;;;;;;5347817;26;20001;-75
2024/04/30 06:53:49;;;;;;;5.72;4.18;;;17.60;93.10;;;;;;5317737;26;20001;-76
2024/04/30 06:56:16;;;;;;;5.70;4.47;;;18.00;93.30;;;;;;5347734;26;20401;-76
2024/04/30 06:58:44;;;;;;;3.83;3.33;;;18.70;93.20;;;;;;5348079;26;20070;-76
2024/04/30 07:01:11;;;;;;;7.80;3.90;;;19.40;91.40;;;;;;5317274;26;20001;-76
2024/04/30 07:03:38;;;;;;;4.70;4.10;;;20.00;90.80;;;;;;5346240;26;20000;-76
2024/04/30 07:06:05;;;;;;;5.97;4.15;;;20.30;88.90;;;;;;5347926;26;20015;-76
2024/04/30 07:08:32;;;;;;;6.28;3.67;;;20.70;89.50;;;;;;5346167;26;20070;-76
2024/04/30 07:10:59;;;;;;;3.72;3.15;;;21.20;87.60;;;;;;5347939;26;20020;-76
2024/04/30 07:13:28;;;;;;;3.75;3.20;;;21.50;84.50;;;;;;5347576;26;19997;-76
2024/04/30 07:15:55;;;;;;;5.10;3.85;;;21.50;83.80;;;;;;5344819;26;20016;-76
2024/04/30 07:18:22;;;;;;;6.15;3.92;;;21.70;83.00;;;;;;5347671;26;19996;-76
2024/04/30 07:20:49;;;;;;;4.63;4.20;;;22.00;82.40;;;;;;5348183;26;20025;-76
2024/04/30 07:23:17;;;;;;;4.20;2.47;;;22.20;80.80;;;;;;5345571;26;20001;-76
2024/04/30 07:25:44;;;;;;;3.08;2.28;;;22.20;80.10;;;;;;5346013;26;20078;-76
2024/04/30 07:28:11;;;;;;;3.47;3.17;;;22.10;80.00;;;;;;5317264;26;20011;-76
2024/04/30 07:30:38;;;;;;;6.03;3.00;;;21.70;80.20;;;;;;5345886;26;20084;-76
2024/04/30 07:33:05;;;;;;;3.22;2.67;;;21.30;80.80;;;;;;5317191;26;20001;-76
2024/04/30 07:35:32;;;;;;;2.75;2.50;;;20.80;81.50;;;;;;5345494;26;20009;-76
2024/04/30 07:37:59;;;;;;;4.82;2.67;;;20.40;82.30;;;;;;5345872;26;20056;-76
2024/04/30 07:40:26;;;;;;;6.40;3.03;;;20.00;82.40;;;;;;5347138;26;20079;-76
2024/04/30 07:42:53;;;;;;;4.00;2.70;;;19.70;83.10;;;;;;5345681;26;20001;-76
2024/04/30 07:45:20;;;;;;;5.00;3.05;;;19.50;83.90;;;;;;5345692;26;20000;-76
2024/04/30 07:47:48;;;;;;;4.03;2.95;;;19.20;84.60;;;;;;5347364;26;20050;-75
2024/04/30 07:50:17;;;;;;;4.07;2.85;;;19.20;84.90;;;;;;5345613;26;20008;-76
2024/04/30 07:52:44;;;;;;;3.83;2.72;;;19.20;85.00;;;;;;5347419;26;19997;-75
2024/04/30 07:55:11;;;;;;;5.85;3.60;;;19.10;85.20;;;;;;5347282;26;20009;-75
2024/04/30 07:57:38;;;;;;;3.85;3.45;;;19.10;85.30;;;;;;5347280;26;20389;-76
2024/04/30 08:00:10;;;;;;;5.78;3.08;;;19.20;85.30;;;;;;5347287;26;20008;-75
2024/04/30 08:02:37;;;;;;;3.53;3.15;;;19.20;85.10;;;;;;5345529;26;20075;-75
2024/04/30 08:05:04;;;;;;;1.73;1.63;;;19.20;85.20;;;;;;5345508;26;20001;-75
2024/04/30 08:07:31;;;;;;;3.58;2.95;;;19.20;85.40;;;;;;5345180;26;20052;-75
2024/04/30 08:09:58;;;;;;;3.75;3.03;;;19.10;85.50;;;;;;5316922;26;20000;-76
2024/04/30 08:12:26;;;;;;;4.70;3.55;;;19.10;85.60;;;;;;5316343;26;20001;-75
2024/04/30 08:14:53;;;;;;;3.22;2.92;;;19.20;85.60;;;;;;5345801;26;20074;-75
2024/04/30 08:17:20;;;;;;;3.63;3.20;;;19.20;85.50;;;;;;5346713;26;20009;-75
2024/04/30 08:19:47;;;;;;;2.50;2.10;;;19.20;85.50;;;;;;5347082;26;20016;-75
2024/04/30 08:22:14;;;;;;;3.45;3.15;;;19.10;85.40;;;;;;5346961;26;20442;-75
2024/04/30 08:24:41;;;;;;;3.85;2.63;;;19.10;85.50;;;;;;5316197;26;20011;-75
2024/04/30 08:27:08;;;;;;;4.88;2.35;;;18.90;85.70;;;;;;5344593;26;20007;-75
2024/04/30 08:29:35;;;;;;;3.30;3.03;;;18.90;86.00;;;;;;5345349;26;20144;-75
2024/04/30 08:32:03;;;;;;;7.47;3.45;;;18.90;86.10;;;;;;5347151;26;20450;-75
2024/04/30 08:34:30;;;;;;;3.55;3.10;;;18.90;86.10;;;;;;5344979;26;20013;-75
2024/04/30 08:36:57;;;;;;;8.73;3.13;;;19.00;86.20;;;;;;5316871;26;20314;-75
2024/04/30 08:39:24;;;;;;;3.40;3.00;;;19.00;86.10;;;;;;5345010;26;19997;-75
2024/04/30 08:41:53;;;;;;;4.80;2.13;;;19.20;85.90;;;;;;5346427;26;20000;-75
2024/04/30 08:44:20;;;;;;;3.80;3.28;;;19.20;85.60;;;;;;5344909;26;20016;-75
2024/04/30 08:46:49;;;;;;;4.35;2.90;;;19.20;85.70;;;;;;5346687;26;20001;-75
2024/04/30 08:49:18;;;;;;;3.75;3.45;;;19.10;85.60;;;;;;5346660;26;20075;-75
2024/04/30 08:51:49;;;;;;;7.38;2.92;;;19.10;85.50;;;;;;5344876;26;20005;-75
2024/04/30 08:54:18;;;;;;;4.45;2.88;;;19.20;85.30;;;;;;5346455;26;20338;-75
2024/04/30 08:56:45;;;;;;;6.65;2.67;;;19.20;85.20;;;;;;5344530;26;20405;-75
2024/04/30 08:59:12;;;;;;;6.20;3.60;;;19.30;85.00;;;;;;5346315;26;20001;-75
2024/04/30 09:01:40;;;;;;;5.32;3.03;;;19.30;85.00;;;;;;5344239;26;20001;-75
2024/04/30 09:04:10;;;;;;;4.45;2.83;;;19.30;84.90;;;;;;5316070;26;20047;-75
2024/04/30 09:06:41;;;;;;;5.00;3.50;;;19.50;84.80;;;;;;5344256;26;20093;-75
2024/04/30 09:09:15;;;;;;;3.60;2.83;;;19.60;84.60;;;;;;5346562;26;20005;-75
2024/04/30 09:11:42;;;;;;;4.57;2.80;;;19.60;84.30;;;;;;5346149;26;20070;-75
2024/04/30 09:14:09;;;;;;;4.28;3.53;;;19.70;84.20;;;;;;5346167;26;20034;-75
2024/04/30 09:16:48;;;;;;;4.43;3.03;;;19.70;84.10;;;;;;5345744;26;19997;-75
2024/04/30 09:19:25;;;;;;;4.30;2.90;;;20.00;84.00;;;;;;5344307;26;19997;-75
2024/04/30 09:22:05;;;;;;;6.50;2.95;;;20.20;83.40;;;;;;5344455;26;20045;-76
2024/04/30 09:24:33;;;;;;;2.95;2.63;;;20.40;83.20;;;;;;5345739;26;20458;-75
2024/04/30 09:27:00;;;;;;;3.65;3.20;;;20.70;82.90;;;;;;5344337;26;20005;-76
2024/04/30 09:29:34;;;;;;;3.85;3.08;;;21.20;82.30;;;;;;5345615;26;20462;-76
2024/04/30 09:32:01;;;;;;;4.70;3.55;;;21.60;80.90;;;;;;5372972;26;20438;-75
2024/04/30 09:34:40;;;;;;;2.88;2.28;;;21.70;80.30;;;;;;5345571;26;20016;-76
2024/04/30 09:37:30;;;;;;;4.25;3.85;;;21.80;79.60;;;;;;5344089;26;20001;-75
2024/04/30 09:40:03;;;;;;;8.90;3.47;;;21.70;80.10;;;;;;5345430;26;20001;-75
2024/04/30 09:42:30;;;;;;;4.60;2.88;;;21.60;80.40;;;;;;5345346;26;20013;-75
2024/04/30 09:45:02;;;;;;;5.50;2.95;;;21.50;80.40;;;;;;5346014;26;19997;-75
2024/04/30 09:47:32;;;;;;;6.72;3.13;;;21.40;80.40;;;;;;5343917;26;20001;-75
2024/04/30 09:50:01;;;;;;;3.10;2.80;;;21.40;80.60;;;;;;5346068;26;19997;-75
2024/04/30 09:52:29;;;;;;;4.80;3.25;;;21.30;80.50;;;;;;5315466;26;20136;-76
2024/04/30 09:55:00;;;;;;;3.33;3.03;;;21.30;80.50;;;;;;5345744;26;20009;-75
2024/04/30 09:57:28;;;;;;;7.03;2.70;;;21.30;80.80;;;;;;5345672;26;20446;-75
2024/04/30 09:59:55;;;;;;;4.30;2.95;;;21.40;80.80;;;;;;5345494;26;20011;-75
2024/04/30 10:02:24;;;;;;;3.35;2.47;;;21.60;80.20;;;;;;5343399;26;20385;-75
2024/04/30 10:04:52;;;;;;;4.65;2.60;;;22.00;79.50;;;;;;5343315;26;20211;-75
2024/04/30 10:07:20;;;;;;;5.22;3.13;;;22.60;79.20;;;;;;5345063;26;19997;-76
2024/04/30 10:09:56;;;;;;;2.88;2.67;;;23.50;76.70;;;;;;5344930;26;20001;-77
2024/04/30 10:12:24;;;;;;;5.30;2.60;;;23.90;73.90;;;;;;5343555;26;20342;-76
2024/04/30 10:14:54;;;;;;;3.83;2.30;;;24.10;74.20;;;;;;5344894;26;20406;-76
2024/04/30 10:17:21;;;;;;;3.50;3.17;;;24.20;73.80;;;;;;5344999;26;20078;-76
2024/04/30 10:19:48;;;;;;;5.75;2.90;;;24.20;74.00;;;;;;5342972;26;20013;-76
2024/04/30 10:22:17;;;;;;;5.72;3.67;;;24.10;74.40;;;;;;5345037;26;20012;-75
2024/04/30 10:24:44;;;;;;;2.90;2.35;;;24.10;74.60;;;;;;5343459;26;20025;-76
2024/04/30 10:27:21;;;;;;;3.78;2.90;;;23.80;73.90;;;;;;5345355;26;20012;-76
2024/04/30 10:29:49;;;;;;;5.25;3.55;;;23.50;74.20;;;;;;5343339;26;20025;-76
2024/04/30 10:32:17;;;;;;;4.75;3.45;;;23.30;75.20;;;;;;5344992;26;20016;-76
2024/04/30 10:34:57;;;;;;;3.42;3.13;;;23.30;75.30;;;;;;5343189;26;20048;-75
2024/04/30 10:37:28;;;;;;;4.63;3.13;;;23.60;75.40;;;;;;5343416;26;20021;-76
2024/04/30 10:40:06;;;;;;;3.05;2.85;;;23.90;74.60;;;;;;5344610;26;20078;-76
2024/04/30 10:42:35;;;;;;;4.57;3.83;;;24.40;74.60;;;;;;5344811;26;20001;-75
2024/04/30 10:45:02;;;;;;;4.43;3.22;;;25.10;73.80;;;;;;5344689;26;20001;-76
2024/04/30 10:47:35;;;;;;;3.38;2.78;;;25.60;73.00;;;;;;5342603;26;20009;-75
2024/04/30 10:50:05;;;;;;;5.80;3.50;;;26.00;73.00;;;;;;5344759;26;20362;-76
2024/04/30 10:52:38;;;;;;;4.57;3.95;;;26.30;72.00;;;;;;5375534;26;20001;-76
2024/04/30 10:55:06;;;;;;;4.07;3.70;;;26.40;71.70;;;;;;5317668;26;20426;-76
2024/04/30 10:57:36;;;;;;;4.10;3.35;;;26.60;71.40;;;;;;5348066;26;20498;-76
2024/04/30 11:00:05;;;;;;;4.57;3.13;;;26.70;69.10;;;;;;5346264;26;20005;-76
2024/04/30 11:02:33;;;;;;;3.85;3.17;;;26.70;69.50;;;;;;5347978;26;20074;-76
2024/04/30 11:05:14;;;;;;;3.83;2.85;;;26.70;69.60;;;;;;5345792;26;20577;-76
2024/04/30 11:08:02;;;;;;;6.07;4.07;;;26.80;69.10;;;;;;5348260;26;20078;-76
2024/04/30 11:10:32;;;;;;;4.53;2.85;;;27.20;69.20;;;;;;5347136;26;20001;-77
2024/04/30 11:13:02;;;;;;;6.05;3.28;;;28.00;68.90;;;;;;5346925;26;19996;-76
2024/04/30 11:15:30;;;;;;;6.03;3.05;;;29.30;67.70;;;;;;5348519;26;20001;-77
2024/04/30 11:17:57;;;;;;;4.45;3.40;;;30.60;66.20;;;;;;5346623;26;20048;-77
2024/04/30 11:20:25;;;;;;;3.45;1.92;;;31.40;63.60;;;;;;5346543;26;20001;-76
2024/04/30 11:22:52;;;;;;;4.40;2.80;;;31.90;61.30;;;;;;5346734;26;19996;-76
2024/04/30 11:25:19;;;;;;;3.45;2.30;;;31.90;61.20;;;;;;5347384;26;20031;-76
2024/04/30 11:27:46;;;;;;;2.47;2.03;;;32.10;61.10;;;;;;5345582;26;20001;-76
2024/04/30 11:30:13;;;;;;;4.43;2.03;;;32.00;60.10;;;;;;5317381;26;20001;-76
2024/04/30 11:32:40;;;;;;;3.90;2.00;;;31.70;59.60;;;;;;5345848;26;20083;-76
2024/04/30 11:35:07;;;;;;;5.57;1.95;;;31.40;59.90;;;;;;5345557;26;20013;-76
2024/04/30 11:37:34;;;;;;;2.17;1.60;;;31.40;60.10;;;;;;5345891;26;20015;-76
2024/04/30 11:40:02;;;;;;;4.57;2.20;;;31.20;60.30;;;;;;5345492;26;20013;-76
2024/04/30 11:42:29;;;;;;;5.15;2.75;;;30.90;60.10;;;;;;5347521;26;20007;-76
2024/04/30 11:45:02;;;;;;;9.05;3.05;;;30.50;60.10;;;;;;5347427;26;20033;-76
2024/04/30 11:47:29;;;;;;;4.65;2.53;;;30.20;60.80;;;;;;5317523;26;20078;-76
2024/04/30 11:49:57;;;;;;;4.93;2.30;;;30.30;60.90;;;;;;5345431;26;20001;-76
2024/04/30 11:52:24;;;;;;;5.75;3.00;;;30.40;61.00;;;;;;5317582;26;20377;-76
2024/04/30 11:54:51;;;;;;;5.45;3.53;;;30.60;61.10;;;;;;5346297;26;20070;-76
2024/04/30 11:57:18;;;;;;;3.55;2.47;;;30.50;60.80;;;;;;5354065;26;20000;-76
2024/04/30 11:59:45;;;;;;;3.95;2.03;;;30.70;61.20;;;;;;5374472;26;20445;-76
2024/04/30 12:02:12;;;;;;;4.35;3.08;;;30.80;60.70;;;;;;5344353;26;20020;-76
2024/04/30 12:04:40;;;;;;;3.78;2.65;;;30.50;61.00;;;;;;5366033;26;20014;-76
2024/04/30 12:07:07;;;;;;;5.80;3.03;;;30.70;61.10;;;;;;5381617;26;20001;-76
2024/04/30 12:09:34;;;;;;;3.58;2.95;;;31.10;61.10;;;;;;5381572;26;20457;-76
2024/04/30 12:12:01;;;;;;;4.18;3.22;;;31.70;60.80;;;;;;5350664;26;20507;-77
2024/04/30 12:14:28;;;;;;;5.43;3.50;;;32.30;60.00;;;;;;5409706;26;20449;-77
2024/04/30 12:16:55;;;;;;;3.38;2.88;;;32.50;59.70;;;;;;5381524;26;20392;-76
2024/04/30 12:19:22;;;;;;;2.97;2.65;;;32.50;59.60;;;;;;5379989;26;20032;-76
2024/04/30 12:21:50;;;;;;;3.67;2.88;;;32.60;59.20;;;;;;5380142;26;20015;-76
2024/04/30 12:24:17;;;;;;;2.47;2.28;;;32.50;59.00;;;;;;5380346;26;20484;-77
2024/04/30 12:26:44;;;;;;;4.45;1.90;;;32.50;59.10;;;;;;5351684;26;20000;-76
2024/04/30 12:29:11;;;;;;;2.97;2.08;;;32.30;57.00;;;;;;5381546;26;20000;-76
2024/04/30 12:31:41;;;;;;;4.55;2.83;;;31.70;58.40;;;;;;5351428;26;19996;-76
2024/04/30 12:34:09;;;;;;;1.63;1.52;;;31.20;59.30;;;;;;5379949;26;19996;-76
2024/04/30 12:36:37;;;;;;;7.93;2.85;;;31.10;59.40;;;;;;5379874;26;20024;-76
2024/04/30 12:39:04;;;;;;;4.35;2.72;;;31.00;59.20;;;;;;5350626;26;20012;-76
2024/04/30 12:41:39;;;;;;;3.78;3.35;;;31.10;59.60;;;;;;5379745;26;20000;-77
2024/04/30 12:44:08;;;;;;;2.78;2.25;;;31.10;59.60;;;;;;5381220;26;20004;-76
2024/04/30 12:46:36;;;;;;;2.90;2.60;;;31.10;59.90;;;;;;5379820;26;20000;-77
2024/04/30 12:49:03;;;;;;;6.07;2.28;;;31.30;59.30;;;;;;5379191;26;20004;-76
2024/04/30 12:51:30;;;;;;;2.90;2.03;;;31.30;59.40;;;;;;5351047;26;20074;-76
2024/04/30 12:53:58;;;;;;;2.42;2.17;;;31.10;59.30;;;;;;5381072;26;20015;-76
2024/04/30 12:56:25;;;;;;;3.92;2.55;;;30.90;59.20;;;;;;5381401;26;20000;-76
2024/04/30 12:58:52;;;;;;;3.05;2.75;;;30.70;59.30;;;;;;5379534;26;20000;-76